createdAt,value
2017-08-11T00:00:16.420Z,51.70
2017-08-11T00:02:43.921Z,43.47
2017-08-11T00:05:11.437Z,39.13
2017-08-11T00:07:38.959Z,37.37
2017-08-11T00:10:06.475Z,36.93
2017-08-11T00:12:34.807Z,34.97
2017-08-11T00:15:02.341Z,34.80
2017-08-11T00:17:29.848Z,34.67
2017-08-11T00:19:57.460Z,33.40
2017-08-11T00:22:25.002Z,36.07
2017-08-11T00:24:52.516Z,37.77
2017-08-11T00:27:20.043Z,32.87
2017-08-11T00:29:47.528Z,33.00
2017-08-11T00:32:15.009Z,34.60
2017-08-11T00:34:43.276Z,31.37
2017-08-11T00:37:10.780Z,34.80
2017-08-11T00:39:38.306Z,31.10
2017-08-11T00:42:06.631Z,30.50
2017-08-11T00:44:34.156Z,30.90
2017-08-11T00:47:02.453Z,32.30
2017-08-11T00:49:29.980Z,31.47
2017-08-11T00:51:58.269Z,33.90
2017-08-11T00:54:25.791Z,35.20
2017-08-11T00:56:53.337Z,37.87
2017-08-11T00:59:20.835Z,36.40
2017-08-11T01:01:49.117Z,40.53
2017-08-11T01:04:16.667Z,39.23
2017-08-11T01:06:44.938Z,43.00
2017-08-11T01:09:13.208Z,42.07
2017-08-11T01:11:41.543Z,40.00
2017-08-11T01:14:09.062Z,41.17
2017-08-11T01:16:36.564Z,42.50
2017-08-11T01:19:04.105Z,42.60
2017-08-11T01:21:31.628Z,39.60
2017-08-11T01:23:59.895Z,44.03
2017-08-11T01:26:28.205Z,41.63
2017-08-11T01:28:55.731Z,35.43
2017-08-11T01:31:24.018Z,34.57
2017-08-11T01:33:52.312Z,38.97
2017-08-11T01:36:19.816Z,31.07
2017-08-11T01:38:47.342Z,30.30
2017-08-11T01:41:14.891Z,31.60
2017-08-11T01:43:42.462Z,27.97
2017-08-11T01:46:09.982Z,30.30
2017-08-11T01:48:38.270Z,26.93
2017-08-11T01:51:06.551Z,25.67
2017-08-11T01:53:34.052Z,28.87
2017-08-11T01:56:01.589Z,26.00
2017-08-11T01:58:29.109Z,25.20
2017-08-11T02:00:57.393Z,23.20
2017-08-11T02:03:25.802Z,22.63
2017-08-11T02:05:53.323Z,22.00
2017-08-11T02:08:21.601Z,22.80
2017-08-11T02:10:50.016Z,20.77
2017-08-11T02:13:17.520Z,19.30
2017-08-11T02:15:45.032Z,21.27
2017-08-11T02:18:12.574Z,19.70
2017-08-11T02:20:40.395Z,19.90
2017-08-11T02:23:08.017Z,20.80
2017-08-11T02:25:35.559Z,19.27
2017-08-11T02:28:03.135Z,19.63
2017-08-11T02:30:30.649Z,18.47
2017-08-11T02:32:58.962Z,19.37
2017-08-11T02:35:26.529Z,18.30
2017-08-11T02:37:54.036Z,15.23
2017-08-11T02:40:21.648Z,16.67
2017-08-11T02:42:49.167Z,17.13
2017-08-11T02:45:17.454Z,18.00
2017-08-11T02:47:45.755Z,16.00
2017-08-11T02:50:13.265Z,14.87
2017-08-11T02:52:40.785Z,16.57
2017-08-11T02:55:08.313Z,16.70
2017-08-11T02:57:35.811Z,15.40
2017-08-11T03:00:03.327Z,15.23
2017-08-11T03:02:30.878Z,15.50
2017-08-11T03:04:59.144Z,16.97
2017-08-11T03:07:27.411Z,16.47
2017-08-11T03:09:54.934Z,17.03
2017-08-11T03:12:22.436Z,13.80
2017-08-11T03:14:50.708Z,15.50
2017-08-11T03:17:19.003Z,16.30
2017-08-11T03:19:46.522Z,16.43
2017-08-11T03:22:14.043Z,14.47
2017-08-11T03:24:41.600Z,15.60
2017-08-11T03:27:09.118Z,13.63
2017-08-11T03:29:37.392Z,14.87
2017-08-11T03:32:05.688Z,15.90
2017-08-11T03:34:33.196Z,14.83
2017-08-11T03:37:00.733Z,13.23
2017-08-11T03:39:28.272Z,14.30
2017-08-11T03:41:55.790Z,16.20
2017-08-11T03:44:23.309Z,13.30
2017-08-11T03:46:50.854Z,15.33
2017-08-11T03:49:18.356Z,15.87
2017-08-11T03:51:45.885Z,13.00
2017-08-11T03:54:13.425Z,14.37
2017-08-11T03:56:40.947Z,13.70
2017-08-11T03:59:08.447Z,14.50
2017-08-11T04:01:35.976Z,14.77
2017-08-11T04:04:04.239Z,15.80
2017-08-11T04:06:31.762Z,13.53
2017-08-11T04:08:59.287Z,13.87
2017-08-11T04:11:26.788Z,14.70
2017-08-11T04:13:54.287Z,13.50
2017-08-11T04:16:22.588Z,14.23
2017-08-11T04:18:50.156Z,13.27
2017-08-11T04:21:17.674Z,13.33
2017-08-11T04:23:45.967Z,14.13
2017-08-11T04:26:13.471Z,13.87
2017-08-11T04:28:40.975Z,11.57
2017-08-11T04:31:09.280Z,11.23
2017-08-11T04:33:36.784Z,11.93
2017-08-11T04:36:04.306Z,13.47
2017-08-11T04:38:31.845Z,11.80
2017-08-11T04:40:59.417Z,11.60
2017-08-11T04:43:26.915Z,12.33
2017-08-11T04:45:54.443Z,12.00
2017-08-11T04:48:21.940Z,10.90
2017-08-11T04:50:49.458Z,13.70
2017-08-11T04:53:17.003Z,12.47
2017-08-11T04:55:44.503Z,12.73
2017-08-11T04:58:12.003Z,10.70
2017-08-11T05:00:39.578Z,11.70
2017-08-11T05:03:07.083Z,11.50
2017-08-11T05:05:34.597Z,11.43
2017-08-11T05:08:02.127Z,12.63
2017-08-11T05:10:29.686Z,12.40
2017-08-11T05:12:57.971Z,11.90
2017-08-11T05:15:25.522Z,11.33
2017-08-11T05:17:53.828Z,11.90
2017-08-11T05:20:21.346Z,11.83
2017-08-11T05:22:49.639Z,12.53
2017-08-11T05:25:17.157Z,11.87
2017-08-11T05:27:44.679Z,12.27
2017-08-11T05:30:12.217Z,13.00
2017-08-11T05:32:39.724Z,12.80
2017-08-11T05:35:07.224Z,11.23
2017-08-11T05:37:35.530Z,11.77
2017-08-11T05:40:03.045Z,11.37
2017-08-11T05:42:31.333Z,12.53
2017-08-11T05:44:59.624Z,11.23
2017-08-11T05:47:27.136Z,12.63
2017-08-11T05:49:54.639Z,11.40
2017-08-11T05:52:22.187Z,15.00
2017-08-11T05:54:50.451Z,12.57
2017-08-11T05:57:18.719Z,10.40
2017-08-11T05:59:46.253Z,11.03
2017-08-11T06:02:13.751Z,12.07
2017-08-11T06:04:42.029Z,11.70
2017-08-11T06:07:10.794Z,11.93
2017-08-11T06:09:38.310Z,11.60
2017-08-11T06:12:05.812Z,12.50
2017-08-11T06:14:33.343Z,12.80
2017-08-11T06:17:00.848Z,13.23
2017-08-11T06:19:29.116Z,11.57
2017-08-11T06:21:57.432Z,11.13
2017-08-11T06:24:24.962Z,11.90
2017-08-11T06:26:52.463Z,12.80
2017-08-11T06:29:20.000Z,11.50
2017-08-11T06:31:47.514Z,10.30
2017-08-11T06:34:15.015Z,11.87
2017-08-11T06:36:42.558Z,13.20
2017-08-11T06:39:10.144Z,11.60
2017-08-11T06:41:37.662Z,13.07
2017-08-11T06:44:05.951Z,13.90
2017-08-11T06:46:34.219Z,11.73
2017-08-11T06:49:02.502Z,14.37
2017-08-11T06:51:30.801Z,12.90
2017-08-11T06:53:58.318Z,13.73
2017-08-11T06:56:26.588Z,12.53
2017-08-11T06:58:54.130Z,14.40
2017-08-11T07:01:21.646Z,14.70
2017-08-11T07:03:49.170Z,13.90
2017-08-11T07:06:17.465Z,12.13
2017-08-11T07:08:44.969Z,13.13
2017-08-11T07:11:12.476Z,14.67
2017-08-11T07:13:40.782Z,13.97
2017-08-11T07:16:08.283Z,14.50
2017-08-11T07:18:35.802Z,15.13
2017-08-11T07:21:03.338Z,15.97
2017-08-11T07:23:30.876Z,13.90
2017-08-11T07:25:59.148Z,15.97
2017-08-11T07:28:27.458Z,14.60
2017-08-11T07:30:55.028Z,14.03
2017-08-11T07:33:22.550Z,15.97
2017-08-11T07:35:50.856Z,14.30
2017-08-11T07:38:18.386Z,16.47
2017-08-11T07:40:46.658Z,16.57
2017-08-11T07:43:14.973Z,17.87
2017-08-11T07:45:42.494Z,16.20
2017-08-11T07:48:10.786Z,15.93
2017-08-11T07:50:39.197Z,18.07
2017-08-11T07:53:06.704Z,17.10
2017-08-11T07:55:34.994Z,16.60
2017-08-11T07:58:03.284Z,15.70
2017-08-11T08:00:30.797Z,16.47
2017-08-11T08:02:58.299Z,17.10
2017-08-11T08:05:25.823Z,16.03
2017-08-11T08:07:53.335Z,15.73
2017-08-11T08:10:20.835Z,17.30
2017-08-11T08:12:48.398Z,16.60
2017-08-11T08:15:16.010Z,17.63
2017-08-11T08:17:43.527Z,14.97
2017-08-11T08:20:11.824Z,16.10
2017-08-11T08:22:39.405Z,16.47
2017-08-11T08:25:06.912Z,16.10
2017-08-11T08:27:34.523Z,14.53
2017-08-11T08:30:02.028Z,15.50
2017-08-11T08:32:29.545Z,16.17
2017-08-11T08:34:57.081Z,18.03
2017-08-11T08:37:24.598Z,13.90
2017-08-11T08:39:52.228Z,17.30
2017-08-11T08:42:19.774Z,15.10
2017-08-11T08:44:47.334Z,17.80
2017-08-11T08:47:14.840Z,17.37
2017-08-11T08:49:43.132Z,14.43
2017-08-11T08:52:11.418Z,16.50
2017-08-11T08:54:38.920Z,14.20
2017-08-11T08:57:06.466Z,16.07
2017-08-11T08:59:33.968Z,11.37
2017-08-11T09:02:02.257Z,14.00
2017-08-11T09:04:30.675Z,14.27
2017-08-11T09:06:58.176Z,13.00
2017-08-11T09:09:25.793Z,12.30
2017-08-11T09:11:53.662Z,13.70
2017-08-11T09:14:21.165Z,11.40
2017-08-11T09:16:48.673Z,12.17
2017-08-11T09:19:16.217Z,12.27
2017-08-11T09:21:43.746Z,10.23
2017-08-11T09:24:12.011Z,11.63
2017-08-11T09:26:51.580Z,10.20
2017-08-11T09:29:31.738Z,10.67
2017-08-11T09:32:11.173Z,10.40
2017-08-11T09:34:51.286Z,10.97
2017-08-11T09:37:18.830Z,11.57
2017-08-11T09:39:46.346Z,13.47
2017-08-11T09:42:13.847Z,12.30
2017-08-11T09:44:41.387Z,11.90
2017-08-11T09:47:08.906Z,11.90
2017-08-11T09:49:37.180Z,13.47
2017-08-11T09:52:05.602Z,11.30
2017-08-11T09:54:33.159Z,12.30
2017-08-11T09:57:00.693Z,12.43
2017-08-11T09:59:28.243Z,12.20
2017-08-11T10:01:56.529Z,12.10
2017-08-11T10:04:24.058Z,10.50
2017-08-11T10:06:51.602Z,9.00
2017-08-11T10:09:19.095Z,9.77
2017-08-11T10:11:47.378Z,7.50
2017-08-11T10:14:14.921Z,9.50
2017-08-11T10:16:43.179Z,8.43
2017-08-11T10:19:10.680Z,9.60
2017-08-11T10:21:38.204Z,8.00
2017-08-11T10:24:05.708Z,10.47
2017-08-11T10:26:33.273Z,8.87
2017-08-11T10:29:00.807Z,9.00
2017-08-11T10:31:28.322Z,9.27
2017-08-11T10:33:55.828Z,8.30
2017-08-11T10:36:23.355Z,7.87
2017-08-11T10:38:50.852Z,7.20
2017-08-11T10:41:18.343Z,7.23
2017-08-11T10:43:45.885Z,7.80
2017-08-11T10:46:13.384Z,7.57
2017-08-11T10:48:40.883Z,7.63
2017-08-11T10:51:08.433Z,6.77
2017-08-11T10:53:35.931Z,7.10
2017-08-11T10:56:03.454Z,7.23
2017-08-11T10:58:30.980Z,6.67
2017-08-11T11:00:58.486Z,6.50
2017-08-11T11:03:25.979Z,5.60
2017-08-11T11:05:53.501Z,5.80
2017-08-11T11:08:21.002Z,7.20
2017-08-11T11:10:48.572Z,7.63
2017-08-11T11:13:17.433Z,7.77
2017-08-11T11:15:44.942Z,6.87
2017-08-11T11:18:12.449Z,7.20
2017-08-11T11:20:39.965Z,8.23
2017-08-11T11:23:07.469Z,7.63
2017-08-11T11:25:34.967Z,8.37
2017-08-11T11:28:03.278Z,9.03
2017-08-11T11:30:30.793Z,8.90
2017-08-11T11:32:59.142Z,9.20
2017-08-11T11:35:26.688Z,9.67
2017-08-11T11:37:54.193Z,9.70
2017-08-11T11:40:22.469Z,8.33
2017-08-11T11:42:50.751Z,7.60
2017-08-11T11:45:18.338Z,8.20
2017-08-11T11:47:45.858Z,9.33
2017-08-11T11:50:14.992Z,8.30
2017-08-11T11:52:42.492Z,9.67
2017-08-11T11:55:10.030Z,9.70
2017-08-11T11:57:37.560Z,9.10
2017-08-11T12:00:05.050Z,7.90
2017-08-11T12:02:32.566Z,9.63
2017-08-11T12:05:00.110Z,10.10
2017-08-11T12:07:28.420Z,11.00
2017-08-11T12:09:55.970Z,9.50
2017-08-11T12:12:23.519Z,10.60
2017-08-11T12:14:51.047Z,8.13
2017-08-11T12:17:18.540Z,9.50
2017-08-11T12:19:46.114Z,9.90
2017-08-11T12:22:13.674Z,11.07
2017-08-11T12:24:41.194Z,10.57
2017-08-11T12:27:09.507Z,11.10
2017-08-11T12:29:37.070Z,13.10
2017-08-11T12:32:04.594Z,12.57
2017-08-11T12:34:32.883Z,12.03
2017-08-11T12:37:00.401Z,13.50
2017-08-11T12:39:27.920Z,13.30
2017-08-11T12:41:55.448Z,13.67
2017-08-11T12:44:23.715Z,13.87
2017-08-11T12:46:52.028Z,13.00
2017-08-11T12:49:19.589Z,14.93
2017-08-11T12:51:47.147Z,15.93
2017-08-11T12:54:14.666Z,14.70
2017-08-11T12:56:42.956Z,15.73
2017-08-11T12:59:10.460Z,14.33
2017-08-11T13:01:37.959Z,15.90
2017-08-11T13:04:06.255Z,15.80
2017-08-11T13:06:33.772Z,16.40
2017-08-11T13:09:01.290Z,16.13
2017-08-11T13:11:28.824Z,15.37
2017-08-11T13:13:56.409Z,13.97
2017-08-11T13:16:23.916Z,15.07
2017-08-11T13:18:51.462Z,13.13
2017-08-11T13:21:18.981Z,13.30
2017-08-11T13:23:46.484Z,10.70
2017-08-11T13:26:14.102Z,9.87
2017-08-11T13:28:41.661Z,9.40
2017-08-11T13:31:09.159Z,8.97
2017-08-11T13:33:36.679Z,8.73
2017-08-11T13:36:04.179Z,9.57
2017-08-11T13:38:31.679Z,10.23
2017-08-11T13:40:59.234Z,10.43
2017-08-11T13:43:26.757Z,10.93
2017-08-11T13:45:54.312Z,11.03
2017-08-11T13:48:21.836Z,11.83
2017-08-11T13:50:49.370Z,11.73
2017-08-11T13:53:16.893Z,10.00
2017-08-11T13:55:44.511Z,13.40
2017-08-11T13:58:12.030Z,11.40
2017-08-11T14:00:40.299Z,11.87
2017-08-11T14:03:08.717Z,10.33
2017-08-11T14:05:36.225Z,9.80
2017-08-11T14:08:03.835Z,10.10
2017-08-11T14:10:31.378Z,9.87
2017-08-11T14:12:58.898Z,8.47
2017-08-11T14:15:26.412Z,7.90
2017-08-11T14:17:53.932Z,8.20
2017-08-11T14:20:22.196Z,9.57
2017-08-11T14:22:49.702Z,8.50
2017-08-11T14:25:17.242Z,8.70
2017-08-11T14:27:44.736Z,7.50
2017-08-11T14:30:12.231Z,9.40
2017-08-11T14:32:39.774Z,9.00
2017-08-11T14:35:07.272Z,8.07
2017-08-11T14:37:34.794Z,8.60
2017-08-11T14:40:02.305Z,7.20
2017-08-11T14:42:29.822Z,7.60
2017-08-11T14:44:58.107Z,7.27
2017-08-11T14:47:26.386Z,8.13
2017-08-11T14:49:54.653Z,7.50
2017-08-11T14:52:22.172Z,9.53
2017-08-11T14:54:49.672Z,8.40
2017-08-11T14:57:17.982Z,7.73
2017-08-11T14:59:45.492Z,7.20
2017-08-11T15:02:13.106Z,7.60
2017-08-11T15:04:40.632Z,7.70
2017-08-11T15:07:08.901Z,8.10
2017-08-11T15:09:37.171Z,7.07
2017-08-11T15:12:04.734Z,8.57
2017-08-11T15:14:33.009Z,8.23
2017-08-11T15:17:01.267Z,9.20
2017-08-11T15:19:28.784Z,7.67
2017-08-11T15:21:56.288Z,8.77
2017-08-11T15:24:23.903Z,7.50
2017-08-11T15:26:51.399Z,8.47
2017-08-11T15:29:18.918Z,8.30
2017-08-11T15:31:46.460Z,7.63
2017-08-11T15:34:13.971Z,8.40
2017-08-11T15:36:41.476Z,7.70
2017-08-11T15:39:09.054Z,7.57
2017-08-11T15:41:36.551Z,8.60
2017-08-11T15:44:04.174Z,8.07
2017-08-11T15:46:31.733Z,7.33
2017-08-11T15:48:59.230Z,7.37
2017-08-11T15:51:26.737Z,8.73
2017-08-11T15:53:54.260Z,8.30
2017-08-11T15:56:22.583Z,7.80
2017-08-11T15:58:50.079Z,9.73
2017-08-11T16:01:17.614Z,7.20
2017-08-11T16:03:45.375Z,7.27
2017-08-11T16:06:12.867Z,6.73
2017-08-11T16:08:40.480Z,5.93
2017-08-11T16:11:07.992Z,6.57
2017-08-11T16:13:35.588Z,5.70
2017-08-11T16:16:03.130Z,6.17
2017-08-11T16:18:31.436Z,5.33
2017-08-11T16:20:58.994Z,6.23
2017-08-11T16:23:26.550Z,5.97
2017-08-11T16:25:54.052Z,6.50
2017-08-11T16:28:21.556Z,6.80
2017-08-11T16:30:49.072Z,6.83
2017-08-11T16:33:16.688Z,6.60
2017-08-11T16:35:44.225Z,6.20
2017-08-11T16:38:11.805Z,7.40
2017-08-11T16:40:39.307Z,6.80
2017-08-11T16:43:06.854Z,7.20
2017-08-11T16:45:34.356Z,6.83
2017-08-11T16:48:01.876Z,7.70
2017-08-11T16:50:29.409Z,6.37
2017-08-11T16:52:56.908Z,6.70
2017-08-11T16:55:24.514Z,7.90
2017-08-11T16:57:52.043Z,7.07
2017-08-11T17:00:20.330Z,8.40
2017-08-11T17:02:47.857Z,8.70
2017-08-11T17:05:15.406Z,8.80
2017-08-11T17:07:43.030Z,8.20
2017-08-11T17:10:10.529Z,8.53
2017-08-11T17:12:38.044Z,8.73
2017-08-11T17:15:05.558Z,8.77
2017-08-11T17:17:33.866Z,8.57
2017-08-11T17:20:01.439Z,8.83
2017-08-11T17:22:28.996Z,8.60
2017-08-11T17:24:56.517Z,8.63
2017-08-11T17:27:24.793Z,9.37
2017-08-11T17:29:53.060Z,9.30
2017-08-11T17:32:21.363Z,8.80
2017-08-11T17:34:48.864Z,8.67
2017-08-11T17:37:16.410Z,8.40
2017-08-11T17:39:43.915Z,8.10
2017-08-11T17:42:12.237Z,8.27
2017-08-11T17:44:39.784Z,7.27
2017-08-11T17:47:07.301Z,9.00
2017-08-11T17:49:34.827Z,10.20
2017-08-11T17:52:02.327Z,9.20
2017-08-11T17:54:30.610Z,10.20
2017-08-11T17:56:58.920Z,9.50
2017-08-11T17:59:26.431Z,10.47
2017-08-11T18:01:53.959Z,10.50
2017-08-11T18:04:21.483Z,11.13
2017-08-11T18:06:49.010Z,11.63
2017-08-11T18:09:17.330Z,10.90
2017-08-11T18:11:44.853Z,10.30
2017-08-11T18:14:13.128Z,10.80
2017-08-11T18:16:41.427Z,11.87
2017-08-11T18:19:08.932Z,11.60
2017-08-11T18:21:36.435Z,11.43
2017-08-11T18:24:04.020Z,11.70
2017-08-11T18:26:31.538Z,13.13
2017-08-11T18:28:59.827Z,12.93
2017-08-11T18:31:28.119Z,12.87
2017-08-11T18:33:55.636Z,11.80
2017-08-11T18:36:23.909Z,10.80
2017-08-11T18:38:51.521Z,11.43
2017-08-11T18:41:19.046Z,12.37
2017-08-11T18:43:47.315Z,10.40
2017-08-11T18:46:15.627Z,9.50
2017-08-11T18:48:43.131Z,10.67
2017-08-11T18:51:10.631Z,10.03
2017-08-11T18:53:38.182Z,9.17
2017-08-11T18:56:06.486Z,9.53
2017-08-11T18:58:33.992Z,10.47
2017-08-11T19:01:01.503Z,9.53
2017-08-11T19:03:29.003Z,10.00
2017-08-11T19:05:56.532Z,10.60
2017-08-11T19:08:24.034Z,10.60
2017-08-11T19:10:52.315Z,11.03
2017-08-11T19:13:20.604Z,9.20
2017-08-11T19:15:48.121Z,9.60
2017-08-11T19:18:15.672Z,10.93
2017-08-11T19:20:43.205Z,10.13
2017-08-11T19:23:10.732Z,12.37
2017-08-11T19:25:39.014Z,10.93
2017-08-11T19:28:06.534Z,10.90
2017-08-11T19:30:34.325Z,12.07
2017-08-11T19:33:02.596Z,10.37
2017-08-11T19:35:30.864Z,11.30
2017-08-11T19:37:58.388Z,11.27
2017-08-11T19:40:25.927Z,11.37
2017-08-11T19:42:53.463Z,12.43
2017-08-11T19:45:21.779Z,11.27
2017-08-11T19:47:49.298Z,12.60
2017-08-11T19:50:16.799Z,11.60
2017-08-11T19:52:44.444Z,12.43
2017-08-11T19:55:11.947Z,12.40
2017-08-11T19:57:39.561Z,12.20
2017-08-11T20:00:07.098Z,12.00
2017-08-11T20:02:34.599Z,13.87
2017-08-11T20:05:02.155Z,13.27
2017-08-11T20:07:29.671Z,12.80
2017-08-11T20:09:57.197Z,9.70
2017-08-11T20:12:24.812Z,11.33
2017-08-11T20:14:52.372Z,10.17
2017-08-11T20:17:19.921Z,7.50
2017-08-11T20:19:47.424Z,8.83
2017-08-11T20:22:14.948Z,7.97
2017-08-11T20:24:42.490Z,7.43
2017-08-11T20:27:10.042Z,9.23
2017-08-11T20:29:37.568Z,7.70
2017-08-11T20:32:05.106Z,7.87
2017-08-11T20:34:32.611Z,8.50
2017-08-11T20:37:00.147Z,8.90
2017-08-11T20:39:27.669Z,7.70
2017-08-11T20:41:55.198Z,7.73
2017-08-11T20:44:22.743Z,6.50
2017-08-11T20:46:50.269Z,7.33
2017-08-11T20:49:17.799Z,6.30
2017-08-11T20:51:45.299Z,5.80
2017-08-11T20:54:12.813Z,5.50
2017-08-11T20:56:40.350Z,5.20
2017-08-11T20:59:07.878Z,5.20
2017-08-11T21:01:36.202Z,6.03
2017-08-11T21:04:03.753Z,6.77
2017-08-11T21:06:31.277Z,8.50
2017-08-11T21:08:59.543Z,8.83
2017-08-11T21:11:27.106Z,8.93
2017-08-11T21:13:55.394Z,8.00
2017-08-11T21:16:23.660Z,8.53
2017-08-11T21:18:51.952Z,6.80
2017-08-11T21:21:20.238Z,7.07
2017-08-11T21:23:47.753Z,6.60
2017-08-11T21:26:15.286Z,5.70
2017-08-11T21:28:42.788Z,5.70
2017-08-11T21:31:11.069Z,5.77
2017-08-11T21:33:39.355Z,4.53
2017-08-11T21:36:07.626Z,6.77
2017-08-11T21:38:35.915Z,5.93
2017-08-11T21:41:03.497Z,6.23
2017-08-11T21:43:31.003Z,6.90
2017-08-11T21:45:58.523Z,5.27
2017-08-11T21:48:26.065Z,6.40
2017-08-11T21:50:53.587Z,4.93
2017-08-11T21:53:21.864Z,5.90
2017-08-11T21:55:50.164Z,6.90
2017-08-11T21:58:17.689Z,8.03
2017-08-11T22:00:45.302Z,8.33
2017-08-11T22:03:12.841Z,6.63
2017-08-11T22:05:40.345Z,9.00
2017-08-11T22:08:07.870Z,11.20
2017-08-11T22:10:35.399Z,22.30
2017-08-11T22:13:03.710Z,28.40
2017-08-11T22:15:31.235Z,27.83
2017-08-11T22:17:59.545Z,23.87
2017-08-11T22:20:27.168Z,18.30
2017-08-11T22:22:54.706Z,16.43
2017-08-11T22:25:22.285Z,9.00
2017-08-11T22:27:49.803Z,6.70
2017-08-11T22:30:18.076Z,5.17
2017-08-11T22:32:46.529Z,4.63
2017-08-11T22:35:14.063Z,3.70
2017-08-11T22:37:41.609Z,3.53
2017-08-11T22:40:09.133Z,3.90
2017-08-11T22:42:37.415Z,4.13
2017-08-11T22:45:05.708Z,2.77
2017-08-11T22:47:33.200Z,3.70
2017-08-11T22:50:00.700Z,3.80
2017-08-11T22:52:29.024Z,4.90
2017-08-11T22:54:56.528Z,7.23
2017-08-11T22:57:24.033Z,6.67
2017-08-11T22:59:51.555Z,5.37
2017-08-11T23:02:19.846Z,3.97
2017-08-11T23:04:47.374Z,4.07
2017-08-11T23:07:14.895Z,4.00
2017-08-11T23:09:42.445Z,4.57
2017-08-11T23:12:09.962Z,4.20
2017-08-11T23:14:38.263Z,4.30
2017-08-11T23:17:05.843Z,4.70
2017-08-11T23:19:33.354Z,3.83
2017-08-11T23:22:01.644Z,3.47
2017-08-11T23:24:29.184Z,4.10
2017-08-11T23:26:57.470Z,4.67
2017-08-11T23:29:25.786Z,4.33
2017-08-11T23:31:53.284Z,6.43
2017-08-11T23:34:20.806Z,5.80
2017-08-11T23:36:48.345Z,6.10
2017-08-11T23:39:15.864Z,5.73
2017-08-11T23:41:43.373Z,7.50
2017-08-11T23:44:10.919Z,8.67
2017-08-11T23:46:38.427Z,9.17
2017-08-11T23:49:05.931Z,10.43
2017-08-11T23:51:33.464Z,10.23
2017-08-11T23:54:01.736Z,11.10
2017-08-11T23:56:30.043Z,10.77
2017-08-11T23:58:57.543Z,11.00
